createdAt,value
2023-05-08T00:00:19.847Z,27.59
2023-05-08T00:02:21.358Z,27.58
2023-05-08T00:04:22.903Z,27.59
2023-05-08T00:06:24.369Z,27.59
2023-05-08T00:08:25.954Z,27.59
2023-05-08T00:10:28.958Z,27.58
2023-05-08T00:12:30.818Z,27.60
2023-05-08T00:14:32.235Z,27.60
2023-05-08T00:16:33.820Z,27.61
2023-05-08T00:18:37.033Z,27.60
2023-05-08T00:20:38.612Z,27.58
2023-05-08T00:22:40.128Z,27.58
2023-05-08T00:24:41.555Z,27.57
2023-05-08T00:26:44.292Z,27.56
2023-05-08T00:28:45.798Z,27.55
2023-05-08T00:30:47.408Z,27.55
2023-05-08T00:32:48.873Z,27.56
2023-05-08T00:34:50.493Z,27.56
2023-05-08T00:36:52.124Z,27.56
2023-05-08T00:38:53.781Z,27.56
2023-05-08T00:40:55.302Z,27.56
2023-05-08T00:42:56.748Z,27.55
2023-05-08T00:44:58.132Z,27.56
2023-05-08T00:46:59.531Z,27.56
2023-05-08T00:49:01.038Z,27.56
2023-05-08T00:51:04.521Z,27.54
2023-05-08T00:53:07.241Z,27.53
2023-05-08T00:55:09.065Z,27.52
2023-05-08T00:57:10.583Z,27.52
2023-05-08T00:59:13.406Z,27.51
2023-05-08T01:01:16.072Z,27.51
2023-05-08T01:03:17.841Z,27.52
2023-05-08T01:05:19.334Z,27.52
2023-05-08T01:07:21.180Z,27.52
2023-05-08T01:09:22.608Z,27.52
2023-05-08T01:11:37.087Z,27.52
2023-05-08T01:13:38.561Z,27.52
2023-05-08T01:15:59.085Z,27.50
2023-05-08T01:18:00.962Z,27.49
2023-05-08T01:20:21.408Z,27.48
2023-05-08T01:22:34.300Z,27.48
2023-05-08T01:24:39.104Z,27.49
2023-05-08T01:26:49.633Z,27.48
2023-05-08T01:28:54.190Z,27.49
2023-05-08T01:30:58.223Z,27.50
2023-05-08T01:33:08.140Z,27.49
2023-05-08T01:35:30.487Z,27.49
2023-05-08T01:37:50.120Z,27.49
2023-05-08T01:39:57.481Z,27.48
2023-05-08T01:42:04.522Z,27.48
2023-05-08T01:44:19.850Z,27.47
2023-05-08T01:46:25.350Z,27.47
2023-05-08T01:48:35.149Z,27.46
2023-05-08T01:50:40.662Z,27.45
2023-05-08T01:52:58.232Z,27.46
2023-05-08T01:55:01.751Z,27.46
2023-05-08T01:57:04.405Z,27.46
2023-05-08T01:59:09.268Z,27.46
2023-05-08T02:01:12.776Z,27.46
2023-05-08T02:03:17.093Z,27.47
2023-05-08T02:05:19.628Z,27.46
2023-05-08T02:07:22.613Z,27.45
2023-05-08T02:09:25.140Z,27.45
2023-05-08T02:11:27.748Z,27.44
2023-05-08T02:13:30.878Z,27.42
2023-05-08T02:15:35.961Z,27.42
2023-05-08T02:17:39.545Z,27.41
2023-05-08T02:19:41.374Z,27.41
2023-05-08T02:21:44.409Z,27.40
2023-05-08T02:23:46.866Z,27.40
2023-05-08T02:25:48.628Z,27.41
2023-05-08T02:27:50.708Z,27.42
2023-05-08T02:29:53.321Z,27.42
2023-05-08T02:31:56.168Z,27.40
2023-05-08T02:33:58.241Z,27.40
2023-05-08T02:35:59.958Z,27.38
2023-05-08T02:38:01.821Z,27.37
2023-05-08T02:40:04.392Z,27.38
2023-05-08T02:42:05.959Z,27.37
2023-05-08T02:44:07.765Z,27.36
2023-05-08T02:46:18.413Z,27.36
2023-05-08T02:48:25.321Z,27.37
2023-05-08T02:50:36.057Z,27.38
2023-05-08T02:53:00.642Z,27.36
2023-05-08T02:55:11.419Z,27.37
2023-05-08T02:57:31.457Z,27.27
2023-05-08T02:59:35.742Z,27.36
2023-05-08T03:01:48.858Z,27.34
2023-05-08T03:03:56.296Z,27.33
2023-05-08T03:05:59.819Z,27.34
2023-05-08T03:08:03.674Z,27.33
2023-05-08T03:10:08.158Z,27.32
2023-05-08T03:12:17.964Z,27.31
2023-05-08T03:14:20.738Z,27.31
2023-05-08T03:16:24.196Z,27.30
2023-05-08T03:18:31.038Z,27.30
2023-05-08T03:20:36.483Z,27.30
2023-05-08T03:22:38.861Z,27.30
2023-05-08T03:24:42.740Z,27.29
2023-05-08T03:26:44.454Z,27.29
2023-05-08T03:28:48.458Z,27.29
2023-05-08T03:30:50.919Z,27.29
2023-05-08T03:32:53.518Z,27.27
2023-05-08T03:34:58.043Z,27.27
2023-05-08T03:36:59.485Z,27.26
2023-05-08T03:39:01.003Z,27.25
2023-05-08T03:41:02.852Z,27.25
2023-05-08T03:43:06.769Z,27.24
2023-05-08T03:45:09.720Z,27.25
2023-05-08T03:47:11.398Z,27.26
2023-05-08T03:49:14.679Z,27.26
2023-05-08T03:51:16.486Z,27.26
2023-05-08T03:53:18.050Z,27.25
2023-05-08T03:55:19.489Z,27.24
2023-05-08T03:57:21.328Z,27.24
2023-05-08T03:59:43.574Z,27.23
2023-05-08T04:01:50.532Z,27.23
2023-05-08T04:04:09.584Z,27.22
2023-05-08T04:06:14.538Z,27.22
2023-05-08T04:08:17.295Z,27.21
2023-05-08T04:10:24.388Z,27.22
2023-05-08T04:12:37.153Z,27.22
2023-05-08T04:14:43.857Z,27.22
2023-05-08T04:16:49.952Z,27.22
2023-05-08T04:18:54.408Z,27.22
2023-05-08T04:20:57.060Z,27.22
2023-05-08T04:22:58.858Z,27.21
2023-05-08T04:25:02.782Z,27.19
2023-05-08T04:27:04.709Z,27.19
2023-05-08T04:29:07.036Z,27.18
2023-05-08T04:31:08.889Z,27.17
2023-05-08T04:33:11.182Z,27.17
2023-05-08T04:35:15.878Z,27.17
2023-05-08T04:37:24.753Z,27.16
2023-05-08T04:39:26.245Z,27.17
2023-05-08T04:41:27.886Z,27.16
2023-05-08T04:43:29.328Z,27.16
2023-05-08T04:45:30.840Z,27.16
2023-05-08T04:47:32.286Z,27.15
2023-05-08T04:49:33.689Z,27.16
2023-05-08T04:51:35.746Z,27.15
2023-05-08T04:53:37.222Z,27.15
2023-05-08T04:55:38.760Z,27.12
2023-05-08T04:57:40.365Z,27.13
2023-05-08T04:59:41.852Z,27.12
2023-05-08T05:01:43.345Z,27.12
2023-05-08T05:03:44.876Z,27.14
2023-05-08T05:05:46.392Z,27.13
2023-05-08T05:07:48.116Z,27.13
2023-05-08T05:09:49.936Z,27.13
2023-05-08T05:11:51.449Z,27.12
2023-05-08T05:13:52.924Z,27.12
2023-05-08T05:15:55.196Z,27.11
2023-05-08T05:17:56.822Z,27.10
2023-05-08T05:19:58.390Z,27.10
2023-05-08T05:21:59.989Z,27.10
2023-05-08T05:24:01.425Z,27.09
2023-05-08T05:26:03.049Z,27.10
2023-05-08T05:28:04.616Z,27.09
2023-05-08T05:30:06.999Z,27.08
2023-05-08T05:32:10.269Z,27.08
2023-05-08T05:34:12.647Z,27.08
2023-05-08T05:36:14.058Z,27.07
2023-05-08T05:38:15.781Z,27.08
2023-05-08T05:40:17.359Z,27.08
2023-05-08T05:42:18.937Z,27.08
2023-05-08T05:44:20.468Z,27.07
2023-05-08T05:46:22.054Z,27.07
2023-05-08T05:48:23.586Z,27.05
2023-05-08T05:50:26.549Z,27.04
2023-05-08T05:52:28.088Z,27.03
2023-05-08T05:54:29.593Z,27.05
2023-05-08T05:56:31.040Z,27.05
2023-05-08T05:58:32.514Z,27.05
2023-05-08T06:00:33.899Z,27.05
2023-05-08T06:02:39.167Z,27.05
2023-05-08T06:04:40.704Z,27.05
2023-05-08T06:06:42.760Z,27.05
2023-05-08T06:08:44.596Z,27.03
2023-05-08T06:10:48.705Z,27.04
2023-05-08T06:12:50.257Z,27.03
2023-05-08T06:14:52.174Z,27.02
2023-05-08T06:16:53.660Z,27.01
2023-05-08T06:18:55.532Z,27.01
2023-05-08T06:20:57.941Z,27.02
2023-05-08T06:22:59.536Z,27.02
2023-05-08T06:25:00.975Z,27.02
2023-05-08T06:27:02.437Z,27.01
2023-05-08T06:29:03.855Z,27.01
2023-05-08T06:31:05.400Z,27.01
2023-05-08T06:33:06.868Z,27.01
2023-05-08T06:35:08.515Z,27.01
2023-05-08T06:37:09.972Z,27.00
2023-05-08T06:39:11.397Z,26.99
2023-05-08T06:41:15.090Z,26.99
2023-05-08T06:43:17.112Z,26.99
2023-05-08T06:45:18.720Z,26.98
2023-05-08T06:47:21.309Z,26.99
2023-05-08T06:49:23.130Z,26.99
2023-05-08T06:51:24.690Z,26.98
2023-05-08T06:53:26.429Z,26.99
2023-05-08T06:55:28.068Z,26.98
2023-05-08T06:57:30.580Z,27.00
2023-05-08T06:59:31.994Z,26.99
2023-05-08T07:01:33.432Z,26.98
2023-05-08T07:03:35.031Z,26.98
2023-05-08T07:05:36.669Z,26.98
2023-05-08T07:07:38.183Z,26.97
2023-05-08T07:09:40.223Z,26.97
2023-05-08T07:11:41.736Z,26.96
2023-05-08T07:13:48.252Z,26.96
2023-05-08T07:15:49.811Z,26.96
2023-05-08T07:17:51.408Z,26.96
2023-05-08T07:19:52.931Z,26.96
2023-05-08T07:21:54.345Z,26.96
2023-05-08T07:23:55.882Z,26.97
2023-05-08T07:25:57.916Z,26.96
2023-05-08T07:28:01.136Z,26.96
2023-05-08T07:30:04.066Z,26.96
2023-05-08T07:32:07.272Z,26.96
2023-05-08T07:34:09.220Z,26.94
2023-05-08T07:36:11.140Z,26.94
2023-05-08T07:38:12.603Z,26.93
2023-05-08T07:40:14.039Z,26.93
2023-05-08T07:42:15.464Z,26.94
2023-05-08T07:44:16.920Z,26.94
2023-05-08T07:46:18.966Z,26.95
2023-05-08T07:48:20.606Z,26.97
2023-05-08T07:50:22.461Z,26.97
2023-05-08T07:52:23.929Z,26.96
2023-05-08T07:54:25.466Z,26.96
2023-05-08T07:56:27.539Z,26.95
2023-05-08T07:58:29.394Z,26.95
2023-05-08T08:00:31.391Z,26.95
2023-05-08T08:02:33.159Z,26.94
2023-05-08T08:04:34.815Z,26.94
2023-05-08T08:06:36.335Z,26.95
2023-05-08T08:08:37.870Z,26.95
2023-05-08T08:10:39.634Z,26.96
2023-05-08T08:12:41.120Z,26.96
2023-05-08T08:14:42.744Z,26.97
2023-05-08T08:16:44.280Z,26.97
2023-05-08T08:18:46.013Z,26.98
2023-05-08T08:20:47.661Z,26.98
2023-05-08T08:22:49.202Z,26.97
2023-05-08T08:24:52.408Z,26.96
2023-05-08T08:26:55.668Z,26.96
2023-05-08T08:28:57.512Z,26.94
2023-05-08T08:30:59.100Z,26.94
2023-05-08T08:33:02.321Z,26.94
2023-05-08T08:35:04.099Z,26.96
2023-05-08T08:37:06.898Z,26.97
2023-05-08T08:39:10.950Z,26.98
2023-05-08T08:41:15.016Z,26.99
2023-05-08T08:43:16.637Z,26.98
2023-05-08T08:45:18.032Z,26.98
2023-05-08T08:47:23.397Z,26.99
2023-05-08T08:49:27.590Z,26.99
2023-05-08T08:51:32.144Z,26.99
2023-05-08T08:53:37.515Z,27.00
2023-05-08T08:55:44.704Z,26.98
2023-05-08T08:57:55.084Z,26.98
2023-05-08T08:59:57.750Z,26.96
2023-05-08T09:02:01.578Z,26.97
2023-05-08T09:04:03.252Z,27.00
2023-05-08T09:06:05.406Z,26.99
2023-05-08T09:08:09.807Z,26.99
2023-05-08T09:10:15.813Z,26.99
2023-05-08T09:12:17.485Z,27.00
2023-05-08T09:14:19.328Z,26.99
2023-05-08T09:16:20.870Z,26.99
2023-05-08T09:18:22.296Z,26.98
2023-05-08T09:20:24.176Z,26.98
2023-05-08T09:22:26.350Z,26.98
2023-05-08T09:24:47.762Z,26.97
2023-05-08T09:26:49.215Z,26.97
2023-05-08T09:29:07.488Z,26.98
2023-05-08T09:31:08.992Z,26.98
2023-05-08T09:33:11.233Z,26.99
2023-05-08T09:35:13.731Z,26.89
2023-05-08T09:37:15.963Z,26.98
2023-05-08T09:39:22.366Z,26.98
2023-05-08T09:41:24.453Z,26.98
2023-05-08T09:43:26.220Z,26.97
2023-05-08T09:45:28.953Z,26.98
2023-05-08T09:47:31.068Z,26.96
2023-05-08T09:49:32.513Z,26.96
2023-05-08T09:51:33.954Z,26.96
2023-05-08T09:53:35.380Z,26.99
2023-05-08T09:56:02.637Z,26.98
2023-05-08T09:58:04.998Z,26.98
2023-05-08T10:00:07.425Z,26.99
2023-05-08T10:02:12.728Z,27.01
2023-05-08T10:04:14.680Z,27.03
2023-05-08T10:06:16.330Z,27.02
2023-05-08T10:08:17.728Z,27.02
2023-05-08T10:10:26.729Z,27.03
2023-05-08T10:12:28.797Z,27.02
2023-05-08T10:14:30.214Z,27.03
2023-05-08T10:16:36.669Z,27.02
2023-05-08T10:18:39.454Z,27.03
2023-05-08T10:20:42.041Z,27.05
2023-05-08T10:22:43.764Z,27.06
2023-05-08T10:24:50.214Z,27.08
2023-05-08T10:27:06.485Z,27.09
2023-05-08T10:29:13.514Z,27.09
2023-05-08T10:31:17.578Z,27.08
2023-05-08T10:33:25.915Z,27.10
2023-05-08T10:35:28.420Z,27.09
2023-05-08T10:37:30.230Z,27.10
2023-05-08T10:39:33.494Z,27.09
2023-05-08T10:41:36.242Z,27.10
2023-05-08T10:43:41.288Z,27.10
2023-05-08T10:45:43.256Z,27.11
2023-05-08T10:47:59.669Z,27.14
2023-05-08T10:50:16.427Z,27.13
2023-05-08T10:52:17.911Z,27.14
2023-05-08T10:54:21.792Z,27.15
2023-05-08T10:56:27.416Z,27.15
2023-05-08T10:58:32.770Z,27.16
2023-05-08T11:00:54.471Z,27.16
2023-05-08T11:03:04.848Z,27.17
2023-05-08T11:05:16.577Z,27.17
2023-05-08T11:07:18.052Z,27.16
2023-05-08T11:09:23.540Z,27.16
2023-05-08T11:11:29.504Z,27.16
2023-05-08T11:13:33.536Z,27.17
2023-05-08T11:15:36.491Z,27.18
2023-05-08T11:17:39.262Z,27.18
2023-05-08T11:19:55.080Z,27.19
2023-05-08T11:22:11.735Z,27.20
2023-05-08T11:24:15.868Z,27.20
2023-05-08T11:26:18.461Z,27.21
2023-05-08T11:28:20.166Z,27.20
2023-05-08T11:30:37.386Z,27.20
2023-05-08T11:32:58.280Z,27.21
2023-05-08T11:34:59.853Z,27.20
2023-05-08T11:37:02.192Z,27.21
2023-05-08T11:39:07.918Z,27.21
2023-05-08T11:41:10.284Z,27.22
2023-05-08T11:43:30.333Z,27.24
2023-05-08T11:45:32.392Z,27.26
2023-05-08T11:47:38.674Z,27.25
2023-05-08T11:49:40.606Z,27.27
2023-05-08T11:51:45.022Z,27.28
2023-05-08T11:53:47.080Z,27.29
2023-05-08T11:55:49.388Z,27.28
2023-05-08T11:57:54.938Z,27.29
2023-05-08T11:59:56.405Z,27.28
2023-05-08T12:02:07.676Z,27.29
2023-05-08T12:04:11.570Z,27.28
2023-05-08T12:06:13.708Z,27.27
2023-05-08T12:08:16.229Z,27.30
2023-05-08T12:10:18.364Z,27.30
2023-05-08T12:12:20.044Z,27.31
2023-05-08T12:14:23.040Z,27.32
2023-05-08T12:16:25.916Z,27.35
2023-05-08T12:18:28.737Z,27.34
2023-05-08T12:20:31.962Z,27.34
2023-05-08T12:22:34.200Z,27.35
2023-05-08T12:24:35.806Z,27.34
2023-05-08T12:26:38.068Z,27.34
2023-05-08T12:28:40.840Z,27.34
2023-05-08T12:30:42.432Z,27.34
2023-05-08T12:32:44.426Z,27.35
2023-05-08T12:34:46.089Z,27.33
2023-05-08T12:36:47.854Z,27.34
2023-05-08T12:38:50.385Z,27.34
2023-05-08T12:40:58.037Z,27.35
2023-05-08T12:43:03.499Z,27.37
2023-05-08T12:45:05.584Z,27.37
2023-05-08T12:47:07.128Z,27.38
2023-05-08T12:49:12.740Z,27.37
2023-05-08T12:51:14.390Z,27.36
2023-05-08T12:53:19.979Z,27.36
2023-05-08T12:55:25.449Z,27.37
2023-05-08T12:57:27.072Z,27.38
2023-05-08T12:59:29.318Z,27.37
2023-05-08T13:01:30.886Z,27.37
2023-05-08T13:03:34.170Z,27.39
2023-05-08T13:05:36.941Z,27.40
2023-05-08T13:07:38.436Z,27.39
2023-05-08T13:09:40.507Z,27.42
2023-05-08T13:11:41.925Z,27.41
2023-05-08T13:13:43.383Z,27.44
2023-05-08T13:15:45.157Z,27.41
2023-05-08T13:17:46.616Z,27.42
2023-05-08T13:19:48.123Z,27.43
2023-05-08T13:21:49.815Z,27.43
2023-05-08T13:23:51.564Z,27.44
2023-05-08T13:25:53.080Z,27.41
2023-05-08T13:27:54.597Z,27.42
2023-05-08T13:29:56.120Z,27.43
2023-05-08T13:31:57.677Z,27.44
2023-05-08T13:33:59.181Z,27.45
2023-05-08T13:36:00.664Z,27.46
2023-05-08T13:38:02.333Z,27.47
2023-05-08T13:40:04.624Z,27.47
2023-05-08T13:42:06.110Z,27.48
2023-05-08T13:44:07.518Z,27.48
2023-05-08T13:46:09.160Z,27.46
2023-05-08T13:48:10.708Z,27.45
2023-05-08T13:50:13.192Z,27.46
2023-05-08T13:52:14.597Z,27.45
2023-05-08T13:54:16.358Z,27.44
2023-05-08T13:56:17.777Z,27.42
2023-05-08T13:58:19.241Z,27.45
2023-05-08T14:00:20.744Z,27.46
2023-05-08T14:02:22.386Z,27.47
2023-05-08T14:04:24.051Z,27.49
2023-05-08T14:06:26.731Z,27.48
2023-05-08T14:08:28.270Z,27.49
2023-05-08T14:10:29.792Z,27.49
2023-05-08T14:12:35.779Z,27.48
2023-05-08T14:14:37.564Z,27.48
2023-05-08T14:16:39.144Z,27.48
2023-05-08T14:18:40.971Z,27.47
2023-05-08T14:20:43.946Z,27.47
2023-05-08T14:22:48.456Z,27.47
2023-05-08T14:24:49.953Z,27.49
2023-05-08T14:26:51.986Z,27.51
2023-05-08T14:28:53.545Z,27.52
2023-05-08T14:30:55.024Z,27.55
2023-05-08T14:32:56.616Z,27.54
2023-05-08T14:34:58.095Z,27.55
2023-05-08T14:36:59.548Z,27.52
2023-05-08T14:39:01.041Z,27.52
2023-05-08T14:41:04.684Z,27.52
2023-05-08T14:43:06.550Z,27.51
2023-05-08T14:45:08.607Z,27.51
2023-05-08T14:47:10.246Z,27.52
2023-05-08T14:49:12.466Z,27.52
2023-05-08T14:51:16.633Z,27.52
2023-05-08T14:53:18.136Z,27.54
2023-05-08T14:55:21.102Z,27.56
2023-05-08T14:57:22.869Z,27.55
2023-05-08T14:59:24.340Z,27.56
2023-05-08T15:01:25.921Z,27.55
2023-05-08T15:03:27.456Z,27.56
2023-05-08T15:05:29.185Z,27.55
2023-05-08T15:07:30.622Z,27.56
2023-05-08T15:09:32.082Z,27.54
2023-05-08T15:11:33.633Z,27.55
2023-05-08T15:13:35.022Z,27.55
2023-05-08T15:15:36.541Z,27.54
2023-05-08T15:17:41.189Z,27.53
2023-05-08T15:19:42.721Z,27.55
2023-05-08T15:21:44.186Z,27.55
2023-05-08T15:23:45.625Z,27.57
2023-05-08T15:25:47.331Z,27.59
2023-05-08T15:27:52.745Z,27.60
2023-05-08T15:29:54.631Z,27.59
2023-05-08T15:31:56.250Z,27.60
2023-05-08T15:33:57.715Z,27.58
2023-05-08T15:35:59.162Z,27.57
2023-05-08T15:38:04.569Z,27.57
2023-05-08T15:40:06.389Z,27.56
2023-05-08T15:42:07.914Z,27.57
2023-05-08T15:44:09.493Z,27.56
2023-05-08T15:46:11.080Z,27.58
2023-05-08T15:48:12.623Z,27.60
2023-05-08T15:50:14.702Z,27.61
2023-05-08T15:52:18.691Z,27.63
2023-05-08T15:54:20.293Z,27.63
2023-05-08T15:56:22.659Z,27.63
2023-05-08T15:58:24.280Z,27.62
2023-05-08T16:00:30.142Z,27.63
2023-05-08T16:02:38.429Z,27.63
2023-05-08T16:04:39.976Z,27.63
2023-05-08T16:06:41.489Z,27.61
2023-05-08T16:08:43.857Z,27.62
2023-05-08T16:10:45.273Z,27.61
2023-05-08T16:12:47.050Z,27.60
2023-05-08T16:14:48.465Z,27.61
2023-05-08T16:16:49.992Z,27.62
2023-05-08T16:18:51.433Z,27.65
2023-05-08T16:20:52.880Z,27.65
2023-05-08T16:22:55.797Z,27.66
2023-05-08T16:24:57.303Z,27.66
2023-05-08T16:26:59.054Z,27.66
2023-05-08T16:29:00.557Z,27.66
2023-05-08T16:31:02.757Z,27.65
2023-05-08T16:33:04.472Z,27.64
2023-05-08T16:35:07.160Z,27.62
2023-05-08T16:37:08.768Z,27.64
2023-05-08T16:39:11.758Z,27.63
2023-05-08T16:41:13.432Z,27.66
2023-05-08T16:43:14.908Z,27.67
2023-05-08T16:45:16.572Z,27.68
2023-05-08T16:47:18.025Z,27.67
2023-05-08T16:49:19.473Z,27.66
2023-05-08T16:51:20.893Z,27.67
2023-05-08T16:53:22.350Z,27.66
2023-05-08T16:55:23.995Z,27.66
2023-05-08T16:57:25.839Z,27.67
2023-05-08T16:59:27.315Z,27.65
2023-05-08T17:01:28.830Z,27.63
2023-05-08T17:03:30.387Z,27.63
2023-05-08T17:05:31.940Z,27.64
2023-05-08T17:07:33.397Z,27.65
2023-05-08T17:09:35.073Z,27.65
2023-05-08T17:11:36.712Z,27.66
2023-05-08T17:13:38.194Z,27.69
2023-05-08T17:15:39.641Z,27.69
2023-05-08T17:17:41.071Z,27.70
2023-05-08T17:19:45.613Z,27.69
2023-05-08T17:21:47.224Z,27.68
2023-05-08T17:23:48.758Z,27.67
2023-05-08T17:25:57.735Z,27.66
2023-05-08T17:28:00.198Z,27.66
2023-05-08T17:30:02.028Z,27.65
2023-05-08T17:32:03.774Z,27.66
2023-05-08T17:34:05.367Z,27.66
2023-05-08T17:36:07.080Z,27.68
2023-05-08T17:38:08.924Z,27.70
2023-05-08T17:40:10.689Z,27.69
2023-05-08T17:42:12.159Z,27.70
2023-05-08T17:44:13.607Z,27.70
2023-05-08T17:46:15.159Z,27.69
2023-05-08T17:48:16.687Z,27.70
2023-05-08T17:50:18.279Z,27.67
2023-05-08T17:52:19.736Z,27.66
2023-05-08T17:54:21.179Z,27.66
2023-05-08T17:56:23.292Z,27.65
2023-05-08T17:58:25.007Z,27.66
2023-05-08T18:00:26.722Z,27.65
2023-05-08T18:02:28.238Z,27.64
2023-05-08T18:04:29.665Z,27.66
2023-05-08T18:06:31.265Z,27.66
2023-05-08T18:08:33.670Z,27.70
2023-05-08T18:10:36.003Z,27.70
2023-05-08T18:12:37.516Z,27.69
2023-05-08T18:14:38.986Z,27.71
2023-05-08T18:16:40.436Z,27.71
2023-05-08T18:18:41.866Z,27.71
2023-05-08T18:20:43.372Z,27.69
2023-05-08T18:22:45.182Z,27.71
2023-05-08T18:24:46.723Z,27.71
2023-05-08T18:26:49.700Z,27.71
2023-05-08T18:28:52.262Z,27.67
2023-05-08T18:30:54.102Z,27.72
2023-05-08T18:32:56.772Z,27.74
2023-05-08T18:34:58.371Z,27.75
2023-05-08T18:36:59.922Z,27.75
2023-05-08T18:39:01.438Z,27.77
2023-05-08T18:41:06.413Z,27.77
2023-05-08T18:43:07.879Z,27.76
2023-05-08T18:45:09.724Z,27.76
2023-05-08T18:47:11.237Z,27.76
2023-05-08T18:49:12.646Z,27.76
2023-05-08T18:51:14.180Z,27.75
2023-05-08T18:53:15.722Z,27.74
2023-05-08T18:55:17.420Z,27.74
2023-05-08T18:57:18.876Z,27.76
2023-05-08T18:59:21.167Z,27.77
2023-05-08T19:01:22.807Z,27.78
2023-05-08T19:03:24.756Z,27.78
2023-05-08T19:05:26.803Z,27.78
2023-05-08T19:07:28.182Z,27.79
2023-05-08T19:09:29.614Z,27.78
2023-05-08T19:11:31.302Z,27.77
2023-05-08T19:13:33.219Z,27.77
2023-05-08T19:15:34.674Z,27.76
2023-05-08T19:17:36.899Z,27.72
2023-05-08T19:19:38.468Z,27.69
2023-05-08T19:21:40.129Z,27.64
2023-05-08T19:23:41.557Z,27.62
2023-05-08T19:25:43.107Z,27.61
2023-05-08T19:27:44.643Z,27.62
2023-05-08T19:29:46.350Z,27.63
2023-05-08T19:31:48.005Z,27.63
2023-05-08T19:33:49.432Z,27.64
2023-05-08T19:35:51.038Z,27.63
2023-05-08T19:37:52.490Z,27.62
2023-05-08T19:39:53.996Z,27.61
2023-05-08T19:41:59.249Z,27.57
2023-05-08T19:44:00.974Z,27.56
2023-05-08T19:46:02.720Z,27.57
2023-05-08T19:48:10.539Z,27.57
2023-05-08T19:50:18.799Z,27.55
2023-05-08T19:52:20.313Z,27.57
2023-05-08T19:54:21.788Z,27.60
2023-05-08T19:56:23.230Z,27.65
2023-05-08T19:58:24.894Z,27.68
2023-05-08T20:00:26.453Z,27.68
2023-05-08T20:02:28.156Z,27.69
2023-05-08T20:04:29.726Z,27.70
2023-05-08T20:06:31.236Z,27.70
2023-05-08T20:08:32.760Z,27.70
2023-05-08T20:10:34.196Z,27.72
2023-05-08T20:12:35.800Z,27.71
2023-05-08T20:14:37.192Z,27.72
2023-05-08T20:16:39.122Z,27.74
2023-05-08T20:18:40.673Z,27.76
2023-05-08T20:20:42.185Z,27.76
2023-05-08T20:22:43.692Z,27.78
2023-05-08T20:24:45.207Z,27.80
2023-05-08T20:26:46.719Z,27.81
2023-05-08T20:28:48.829Z,27.81
2023-05-08T20:30:50.762Z,27.79
2023-05-08T20:32:52.402Z,27.81
2023-05-08T20:34:54.157Z,27.81
2023-05-08T20:36:57.844Z,27.81
2023-05-08T20:38:59.291Z,27.82
2023-05-08T20:41:01.389Z,27.82
2023-05-08T20:43:03.180Z,27.81
2023-05-08T20:45:05.112Z,27.81
2023-05-08T20:47:06.545Z,27.85
2023-05-08T20:49:08.050Z,27.84
2023-05-08T20:51:09.510Z,27.87
2023-05-08T20:53:11.154Z,27.87
2023-05-08T20:55:12.733Z,27.74
2023-05-08T20:57:15.651Z,27.88
2023-05-08T20:59:18.718Z,27.90
2023-05-08T21:01:21.237Z,27.89
2023-05-08T21:03:23.080Z,27.88
2023-05-08T21:05:24.608Z,27.89
2023-05-08T21:07:26.165Z,27.89
2023-05-08T21:09:27.707Z,27.90
2023-05-08T21:11:30.362Z,27.88
2023-05-08T21:13:32.061Z,27.90
2023-05-08T21:15:34.970Z,27.93
2023-05-08T21:17:36.699Z,27.94
2023-05-08T21:19:38.556Z,27.94
2023-05-08T21:21:40.158Z,27.95
2023-05-08T21:23:41.953Z,27.95
2023-05-08T21:25:45.158Z,27.96
2023-05-08T21:27:46.576Z,27.97
2023-05-08T21:29:48.013Z,27.97
2023-05-08T21:31:49.599Z,27.96
2023-05-08T21:33:52.077Z,27.96
2023-05-08T21:35:53.614Z,27.95
2023-05-08T21:37:55.143Z,27.93
2023-05-08T21:39:56.562Z,27.94
2023-05-08T21:41:58.147Z,27.95
2023-05-08T21:43:59.880Z,27.96
2023-05-08T21:46:03.366Z,27.96
2023-05-08T21:48:05.196Z,27.97
2023-05-08T21:50:07.198Z,27.96
2023-05-08T21:52:08.897Z,27.94
2023-05-08T21:54:10.616Z,27.95
2023-05-08T21:56:12.254Z,27.92
2023-05-08T21:58:13.682Z,27.94
2023-05-08T22:00:15.508Z,27.94
2023-05-08T22:02:16.958Z,27.93
2023-05-08T22:04:18.990Z,27.93
2023-05-08T22:06:20.469Z,27.92
2023-05-08T22:08:21.906Z,27.92
2023-05-08T22:10:25.661Z,27.93
2023-05-08T22:12:27.289Z,27.95
2023-05-08T22:14:29.160Z,27.95
2023-05-08T22:16:30.744Z,27.95
2023-05-08T22:18:32.243Z,27.93
2023-05-08T22:20:33.938Z,27.93
2023-05-08T22:22:35.338Z,27.93
2023-05-08T22:24:36.801Z,27.94
2023-05-08T22:26:38.502Z,27.93
2023-05-08T22:28:40.054Z,27.93
2023-05-08T22:30:41.668Z,27.93
2023-05-08T22:32:43.252Z,27.92
2023-05-08T22:34:46.374Z,27.92
2023-05-08T22:36:48.189Z,27.93
2023-05-08T22:38:49.740Z,27.93
2023-05-08T22:40:52.345Z,27.93
2023-05-08T22:42:55.819Z,27.93
2023-05-08T22:44:57.319Z,27.93
2023-05-08T22:46:58.931Z,27.92
2023-05-08T22:49:00.831Z,27.93
2023-05-08T22:51:02.326Z,27.91
2023-05-08T22:53:08.021Z,27.92
2023-05-08T22:55:09.764Z,27.91
2023-05-08T22:57:11.310Z,27.92
2023-05-08T22:59:12.736Z,27.90
2023-05-08T23:01:15.942Z,27.90
2023-05-08T23:03:17.439Z,27.90
2023-05-08T23:05:18.902Z,27.90
2023-05-08T23:07:20.500Z,27.91
2023-05-08T23:09:22.898Z,27.91
2023-05-08T23:11:25.000Z,27.89
2023-05-08T23:13:26.853Z,27.91
2023-05-08T23:15:28.632Z,27.90
2023-05-08T23:17:30.222Z,27.91
2023-05-08T23:19:31.674Z,27.92
2023-05-08T23:21:33.454Z,27.90
2023-05-08T23:23:35.234Z,27.88
2023-05-08T23:25:36.636Z,27.88
2023-05-08T23:27:38.254Z,27.88
2023-05-08T23:29:39.774Z,27.87
2023-05-08T23:31:41.271Z,27.88
2023-05-08T23:33:42.734Z,27.89
2023-05-08T23:35:44.144Z,27.89
2023-05-08T23:37:45.608Z,27.89
2023-05-08T23:39:47.016Z,27.89
2023-05-08T23:41:48.412Z,27.88
2023-05-08T23:43:49.892Z,27.88
2023-05-08T23:45:51.304Z,27.88
2023-05-08T23:47:52.888Z,27.88
2023-05-08T23:49:54.330Z,27.87
2023-05-08T23:51:56.162Z,27.87
2023-05-08T23:53:57.681Z,27.87
2023-05-08T23:55:59.423Z,27.86
2023-05-08T23:58:00.997Z,27.86
